Perth International Airport


Codes: YPPH/PER
Name: Perth International Airport
City: Perth
Country: Australia
Elevation: 67 ft.
Wikipedia:

Photos at Perth International Airport


   Photos courtesy of SpottingLog. You can add your own sightings and photos by signing up for a free trial today.



VH-FNJ, 19-Nov-2022
© Daniel Ouston

VH-XFE, 19-Nov-2022
© Daniel Ouston

ZS-NEX, 19-Nov-2022
© Daniel Ouston

PK-AZE, 18-Nov-2022
© Daniel Ouston

ZK-TLJ, 18-Nov-2022
© Daniel Ouston

9M-XXF, 18-Nov-2022
© Daniel Ouston

A36-001, 18-Nov-2022
© Daniel Ouston

VH-ZRN, 18-Nov-2022
© Daniel Ouston

VH-FKJ, 18-Nov-2022
© Daniel Ouston

9M-LNV, 18-Nov-2022
© Daniel Ouston

9V-SHU, 18-Nov-2022
© Daniel Ouston

VH-IYH, 18-Nov-2022
© Daniel Ouston


Weather at Perth International Airport


Time (UTC)DescriptionTempratureWindCloud coverageVisibilityPressureHumidity
25-Jun-2024 12:00Clear Sky12°C7 mph, NE4%10000m1012hPa66%
25-Jun-2024 15:00Clear Sky12°C7 mph, NE7%10000m1012hPa63%
25-Jun-2024 18:00Clear Sky11°C7 mph, NE7%10000m1010hPa62%
25-Jun-2024 21:00Broken Clouds12°C7 mph, NE74%10000m1008hPa55%
26-Jun-2024 00:00Light Rain11°C9 mph, NE87%10000m1007hPa64%
26-Jun-2024 03:00Overcast Clouds12°C9 mph, N100%10000m1008hPa76%
26-Jun-2024 06:00Broken Clouds18°C7 mph, N80%10000m1005hPa65%
26-Jun-2024 09:00Light Rain16°C7 mph, N49%10000m1005hPa85%
26-Jun-2024 12:00Light Rain14°C7 mph, NE35%10000m1005hPa95%
26-Jun-2024 15:00Light Rain13°C7 mph, NE36%10000m1004hPa95%
26-Jun-2024 18:00Light Rain13°C4 mph, NE24%10000m1003hPa94%
26-Jun-2024 21:00Light Rain12°C4 mph, N67%10000m1003hPa96%
27-Jun-2024 00:00Moderate Rain13°C7 mph, N83%8236m1003hPa96%
27-Jun-2024 03:00Light Rain15°C9 mph, N98%10000m1002hPa91%
27-Jun-2024 06:00Moderate Rain17°C13 mph, NW89%6580m1000hPa81%
27-Jun-2024 09:00Moderate Rain16°C11 mph, NW40%6903m1000hPa78%
27-Jun-2024 12:00Light Rain13°C7 mph, N34%10000m1001hPa88%
27-Jun-2024 15:00Moderate Rain12°C9 mph, N77%6798m1001hPa92%
27-Jun-2024 18:00Moderate Rain13°C9 mph, NE88%6986m1000hPa92%
27-Jun-2024 21:00Light Rain13°C7 mph, NE100%10000m1000hPa93%
28-Jun-2024 00:00Light Rain13°C4 mph, E93%10000m1002hPa94%
28-Jun-2024 03:00Overcast Clouds15°C7 mph, SE87%10000m1003hPa82%
28-Jun-2024 06:00Overcast Clouds16°C9 mph, SE86%10000m1003hPa75%
28-Jun-2024 09:00Broken Clouds16°C9 mph, SE68%10000m1006hPa67%
28-Jun-2024 12:00Scattered Clouds14°C9 mph, S42%10000m1010hPa77%
28-Jun-2024 15:00Clear Sky14°C11 mph, SE5%10000m1012hPa78%
28-Jun-2024 18:00Scattered Clouds15°C11 mph, SE46%10000m1013hPa72%
28-Jun-2024 21:00Broken Clouds13°C9 mph, S61%10000m1016hPa79%
29-Jun-2024 00:00Broken Clouds13°C7 mph, SE57%10000m1019hPa77%
29-Jun-2024 03:00Few Clouds17°C9 mph, SE13%10000m1020hPa57%
29-Jun-2024 06:00Scattered Clouds16°C9 mph, SE41%10000m1020hPa52%
29-Jun-2024 09:00Overcast Clouds16°C7 mph, SE98%10000m1022hPa49%
29-Jun-2024 12:00Overcast Clouds14°C4 mph, SE94%10000m1024hPa50%
29-Jun-2024 15:00Clear Sky11°C4 mph, SE4%10000m1026hPa60%
29-Jun-2024 18:00Clear Sky10°C4 mph, SE2%10000m1027hPa62%
29-Jun-2024 21:00Clear Sky10°C4 mph, E2%10000m1027hPa66%
30-Jun-2024 00:00Clear Sky9°C4 mph, E1%10000m1028hPa70%
30-Jun-2024 03:00Clear Sky16°C9 mph, E1%10000m1029hPa45%
30-Jun-2024 06:00Clear Sky17°C9 mph, E1%10000m1027hPa40%
30-Jun-2024 09:00Clear Sky15°C7 mph, E2%10000m1028hPa49%